Starks, Louisiana
Current Conditions -  °F | °C
As of 4:55 PM on Sunday 21 Dec 2014 (Local Time) from K5R8 Reporting Station
Overcast Overcast  
Wind Chill: 50°   Ceiling: 900
Heat Index: 50°   Visibility: 10mi
Dew Point: 48°   Wind: 0mph
Humidity: 94%   Direction: NA
Pressure: 29.99"   Gusts: NA
Location:  30.32°N, 93.66°W
Report Text: K5R8 212255Z AUTO 00000KT 10SM OVC009 10/09 A2999 RMK AO2 T01010091
Loading
Personal Weather Stations






























Interactive Weather Map New forecast layout! Learn more

10-Day Weather Forecast

Advertisements
Track Severe Weather on mobile